Time,TemperatureF,DewpointF,PressureIn,WindDirection,WindDirectionDegrees,WindSpeedMPH,WindSpeedGustMPH,Humidity,HourlyPrecipIn,Conditions,Clouds,dailyrainin,SoftwareType,DateUTC
2013-04-11 00:01:00,73.6,55.9,29.89,SW,225,3.0,4.0,54,0.00,NA,NA,0.00,WeatherLink_script,2013-04-11 04:01:00,
2013-04-11 00:02:00,73.6,55.9,29.89,SW,225,3.0,4.0,54,0.00,NA,NA,0.00,WeatherLink_script,2013-04-11 04:02:00,
2013-04-11 00:04:00,73.5,55.8,29.89,SW,225,3.6,5.0,54,0.00,NA,NA,0.00,WeatherLink_script,2013-04-11 04:04:00,
2013-04-11 00:05:00,73.4,55.7,29.89,SW,224,3.7,4.0,54,0.00,NA,NA,0.00,WeatherLink_script,2013-04-11 04:05:00,
2013-04-11 00:10:00,73.2,55.5,29.88,SW,214,4.1,7.0,54,0.00,NA,NA,0.00,WeatherLink_script,2013-04-11 04:10:00,
2013-04-11 00:15:00,73.1,56.0,29.89,SW,218,4.7,7.0,55,0.00,NA,NA,0.00,WeatherLink_script,2013-04-11 04:15:00,
2013-04-11 00:20:00,73.1,56.0,29.89,SW,223,3.8,6.0,55,0.00,NA,NA,0.00,WeatherLink_script,2013-04-11 04:20:00,
2013-04-11 00:25:00,73.1,56.0,29.88,SW,214,4.8,6.0,55,0.00,NA,NA,0.00,WeatherLink_script,2013-04-11 04:25:00,
2013-04-11 00:30:00,73.1,56.0,29.88,SW,225,5.4,7.0,55,0.00,NA,NA,0.00,WeatherLink_script,2013-04-11 04:30:00,
2013-04-11 00:35:00,73.1,56.0,29.89,SW,228,5.0,7.0,55,0.00,NA,NA,0.00,WeatherLink_script,2013-04-11 04:35:00,
2013-04-11 00:41:00,73.1,56.0,29.88,SW,235,5.2,7.0,55,0.00,NA,NA,0.00,WeatherLink_script,2013-04-11 04:41:00,
2013-04-11 00:46:00,73.2,56.1,29.88,SW,224,5.0,6.0,55,0.00,NA,NA,0.00,WeatherLink_script,2013-04-11 04:46:00,
2013-04-11 00:51:00,73.2,56.1,29.88,SW,221,4.2,6.0,55,0.00,NA,NA,0.00,WeatherLink_script,2013-04-11 04:51:00,
2013-04-11 00:56:00,73.2,56.1,29.88,SW,221,4.0,5.0,55,0.00,NA,NA,0.00,WeatherLink_script,2013-04-11 04:56:00,
2013-04-11 01:01:00,73.1,56.0,29.88,SW,220,3.8,6.0,55,0.00,NA,NA,0.00,WeatherLink_script,2013-04-11 05:01:00,
2013-04-11 01:06:00,72.9,55.8,29.88,SW,220,3.2,4.0,55,0.00,NA,NA,0.00,WeatherLink_script,2013-04-11 05:06:00,
2013-04-11 01:11:00,72.6,56.0,29.87,South,183,3.4,5.0,56,0.00,NA,NA,0.00,WeatherLink_script,2013-04-11 05:11:00,
2013-04-11 01:16:00,72.5,55.9,29.87,SSW,206,4.3,6.0,56,0.00,NA,NA,0.00,WeatherLink_script,2013-04-11 05:16:00,
2013-04-11 01:21:00,72.4,55.8,29.87,SW,221,4.1,5.0,56,0.00,NA,NA,0.00,WeatherLink_script,2013-04-11 05:21:00,
2013-04-11 01:26:00,72.2,56.1,29.88,SW,221,4.2,5.0,57,0.00,NA,NA,0.00,WeatherLink_script,2013-04-11 05:26:00,
2013-04-11 01:31:00,72.2,56.1,29.87,SW,218,4.5,6.0,57,0.00,NA,NA,0.00,WeatherLink_script,2013-04-11 05:31:00,
2013-04-11 01:36:00,72.0,56.0,29.87,SW,220,3.4,4.0,57,0.00,NA,NA,0.00,WeatherLink_script,2013-04-11 05:36:00,
2013-04-11 01:41:00,71.9,55.8,29.87,SW,220,3.8,5.0,57,0.00,NA,NA,0.00,WeatherLink_script,2013-04-11 05:41:00,
2013-04-11 01:46:00,71.5,55.9,29.87,SW,218,3.7,5.0,58,0.00,NA,NA,0.00,WeatherLink_script,2013-04-11 05:46:00,
2013-04-11 01:51:00,71.4,55.8,29.87,South,184,5.8,7.0,58,0.00,NA,NA,0.00,WeatherLink_script,2013-04-11 05:51:00,
2013-04-11 01:56:00,71.2,55.7,29.87,South,180,3.6,5.0,58,0.00,NA,NA,0.00,WeatherLink_script,2013-04-11 05:56:00,
2013-04-11 02:01:00,71.0,55.9,29.87,WSW,249,4.6,7.0,59,0.00,NA,NA,0.00,WeatherLink_script,2013-04-11 06:01:00,
2013-04-11 02:06:00,71.1,56.5,29.87,WSW,249,3.4,5.0,60,0.00,NA,NA,0.00,WeatherLink_script,2013-04-11 06:06:00,
2013-04-11 02:11:00,71.2,56.1,29.87,WSW,257,4.7,7.0,59,0.00,NA,NA,0.00,WeatherLink_script,2013-04-11 06:11:00,
2013-04-11 02:16:00,71.4,56.3,29.88,WSW,239,4.1,5.0,59,0.00,NA,NA,0.00,WeatherLink_script,2013-04-11 06:16:00,
2013-04-11 02:21:00,71.0,55.9,29.88,SSE,166,1.4,4.0,59,0.00,NA,NA,0.00,WeatherLink_script,2013-04-11 06:21:00,
2013-04-11 02:26:00,70.8,56.2,29.88,SSE,167,2.4,4.0,60,0.00,NA,NA,0.00,WeatherLink_script,2013-04-11 06:26:00,
2013-04-11 02:31:00,70.6,56.0,29.88,SSE,167,2.5,3.0,60,0.00,NA,NA,0.00,WeatherLink_script,2013-04-11 06:31:00,
2013-04-11 02:36:00,70.3,55.8,29.87,SSE,167,3.2,5.0,60,0.00,NA,NA,0.00,WeatherLink_script,2013-04-11 06:36:00,
2013-04-11 02:41:00,70.2,56.1,29.87,SSE,167,3.5,5.0,61,0.00,NA,NA,0.00,WeatherLink_script,2013-04-11 06:41:00,
2013-04-11 02:46:00,70.0,55.9,29.87,SSE,168,2.9,5.0,61,0.00,NA,NA,0.00,WeatherLink_script,2013-04-11 06:46:00,
2013-04-11 02:51:00,69.7,56.1,29.88,SSE,168,3.3,5.0,62,0.00,NA,NA,0.00,WeatherLink_script,2013-04-11 06:51:00,
2013-04-11 02:56:00,69.5,55.9,29.87,SSE,168,3.3,5.0,62,0.00,NA,NA,0.00,WeatherLink_script,2013-04-11 06:56:00,
2013-04-11 03:01:00,69.3,56.1,29.87,SSE,167,3.0,4.0,63,0.00,NA,NA,0.00,WeatherLink_script,2013-04-11 07:01:00,
2013-04-11 03:06:00,69.1,56.0,29.87,South,169,2.3,4.0,63,0.00,NA,NA,0.00,WeatherLink_script,2013-04-11 07:06:00,
2013-04-11 03:11:00,69.0,55.9,29.87,South,169,3.7,5.0,63,0.00,NA,NA,0.00,WeatherLink_script,2013-04-11 07:11:00,
2013-04-11 03:16:00,68.7,55.6,29.87,South,169,2.9,4.0,63,0.00,NA,NA,0.00,WeatherLink_script,2013-04-11 07:16:00,
2013-04-11 03:21:00,68.5,55.8,29.87,South,169,3.1,4.0,64,0.00,NA,NA,0.00,WeatherLink_script,2013-04-11 07:21:00,
2013-04-11 03:26:00,68.3,55.6,29.87,South,169,2.8,3.0,64,0.00,NA,NA,0.00,WeatherLink_script,2013-04-11 07:26:00,
2013-04-11 03:31:00,68.3,56.1,29.87,South,169,2.0,4.0,65,0.00,NA,NA,0.00,WeatherLink_script,2013-04-11 07:31:00,
2013-04-11 03:36:00,68.2,56.0,29.87,South,169,1.7,4.0,65,0.00,NA,NA,0.00,WeatherLink_script,2013-04-11 07:36:00,
2013-04-11 03:41:00,68.2,56.0,29.86,South,169,1.4,3.0,65,0.00,NA,NA,0.00,WeatherLink_script,2013-04-11 07:41:00,
2013-04-11 03:46:00,68.2,56.0,29.87,South,169,1.8,3.0,65,0.00,NA,NA,0.00,WeatherLink_script,2013-04-11 07:46:00,
2013-04-11 03:51:00,68.2,56.0,29.87,South,169,1.5,3.0,65,0.00,NA,NA,0.00,WeatherLink_script,2013-04-11 07:51:00,
2013-04-11 03:56:00,68.2,56.0,29.87,South,169,1.6,3.0,65,0.00,NA,NA,0.00,WeatherLink_script,2013-04-11 07:56:00,
2013-04-11 04:01:00,68.2,56.0,29.87,South,169,2.3,3.0,65,0.00,NA,NA,0.00,WeatherLink_script,2013-04-11 08:01:00,
2013-04-11 04:06:00,68.3,56.1,29.88,South,169,2.2,3.0,65,0.00,NA,NA,0.00,WeatherLink_script,2013-04-11 08:06:00,
2013-04-11 04:11:00,68.3,56.1,29.87,South,169,2.1,3.0,65,0.00,NA,NA,0.00,WeatherLink_script,2013-04-11 08:11:00,
2013-04-11 04:16:00,68.2,56.0,29.87,South,169,4.1,5.0,65,0.00,NA,NA,0.00,WeatherLink_script,2013-04-11 08:16:00,
2013-04-11 04:21:00,68.2,56.0,29.87,South,169,4.2,5.0,65,0.00,NA,NA,0.00,WeatherLink_script,2013-04-11 08:21:00,
2013-04-11 04:26:00,68.2,56.4,29.87,South,169,1.3,2.0,66,0.00,NA,NA,0.00,WeatherLink_script,2013-04-11 08:26:00,
2013-04-11 04:31:00,67.8,56.0,29.87,South,169,0.6,1.0,66,0.00,NA,NA,0.00,WeatherLink_script,2013-04-11 08:31:00,
2013-04-11 04:36:00,67.7,55.9,29.87,South,169,0.9,2.0,66,0.00,NA,NA,0.00,WeatherLink_script,2013-04-11 08:36:00,
2013-04-11 04:41:00,67.5,56.1,29.87,South,169,1.4,3.0,67,0.00,NA,NA,0.00,WeatherLink_script,2013-04-11 08:41:00,
2013-04-11 04:46:00,67.5,56.1,29.87,South,169,0.1,1.0,67,0.00,NA,NA,0.00,WeatherLink_script,2013-04-11 08:46:00,
2013-04-11 04:51:00,67.4,56.0,29.87,South,169,0.8,1.0,67,0.00,NA,NA,0.00,WeatherLink_script,2013-04-11 08:51:00,
2013-04-11 04:56:00,67.2,55.8,29.88,South,169,0.0,0.0,67,0.00,NA,NA,0.00,WeatherLink_script,2013-04-11 08:56:00,
2013-04-11 05:01:00,67.0,56.1,29.87,South,169,0.5,2.0,68,0.00,NA,NA,0.00,WeatherLink_script,2013-04-11 09:01:00,
2013-04-11 05:06:00,66.8,55.9,29.87,South,169,0.0,0.0,68,0.00,NA,NA,0.00,WeatherLink_script,2013-04-11 09:06:00,
2013-04-11 05:11:00,66.8,55.9,29.87,South,169,0.0,0.0,68,0.00,NA,NA,0.00,WeatherLink_script,2013-04-11 09:11:00,
2013-04-11 05:16:00,66.5,56.0,29.87,South,169,1.2,2.0,69,0.00,NA,NA,0.00,WeatherLink_script,2013-04-11 09:16:00,
2013-04-11 05:21:00,66.5,56.0,29.87,South,169,0.9,2.0,69,0.00,NA,NA,0.00,WeatherLink_script,2013-04-11 09:21:00,
2013-04-11 05:26:00,66.4,55.9,29.87,South,169,0.0,0.0,69,0.00,NA,NA,0.00,WeatherLink_script,2013-04-11 09:26:00,
2013-04-11 05:31:00,66.0,55.5,29.87,South,169,0.3,1.0,69,0.00,NA,NA,0.00,WeatherLink_script,2013-04-11 09:31:00,
2013-04-11 05:36:00,65.7,55.6,29.87,South,169,0.9,2.0,70,0.00,NA,NA,0.00,WeatherLink_script,2013-04-11 09:36:00,
2013-04-11 05:41:00,65.3,54.9,29.88,South,169,1.4,2.0,69,0.00,NA,NA,0.00,WeatherLink_script,2013-04-11 09:41:00,
2013-04-11 05:46:00,65.1,55.1,29.88,South,169,1.8,3.0,70,0.00,NA,NA,0.00,WeatherLink_script,2013-04-11 09:46:00,
2013-04-11 05:51:00,64.8,54.8,29.88,South,169,2.9,4.0,70,0.00,NA,NA,0.00,WeatherLink_script,2013-04-11 09:51:00,
2013-04-11 05:56:00,64.6,54.6,29.89,South,169,2.4,4.0,70,0.00,NA,NA,0.00,WeatherLink_script,2013-04-11 09:56:00,
2013-04-11 06:01:00,64.5,54.8,29.89,SE,141,2.8,5.0,71,0.00,NA,NA,0.00,WeatherLink_script,2013-04-11 10:01:00,
2013-04-11 06:06:00,64.4,54.4,29.89,North,7,3.6,5.0,70,0.00,NA,NA,0.00,WeatherLink_script,2013-04-11 10:06:00,
2013-04-11 06:11:00,64.4,54.4,29.88,North,7,2.9,4.0,70,0.00,NA,NA,0.00,WeatherLink_script,2013-04-11 10:11:00,
2013-04-11 06:16:00,64.6,54.2,29.88,NE,49,1.3,3.0,69,0.00,NA,NA,0.00,WeatherLink_script,2013-04-11 10:16:00,
2013-04-11 06:21:00,64.6,54.2,29.88,NE,49,1.4,3.0,69,0.00,NA,NA,0.00,WeatherLink_script,2013-04-11 10:21:00,
2013-04-11 06:26:00,64.6,54.2,29.88,NE,49,1.2,2.0,69,0.00,NA,NA,0.00,WeatherLink_script,2013-04-11 10:26:00,
2013-04-11 06:31:00,64.4,54.0,29.88,NE,49,1.6,2.0,69,0.00,NA,NA,0.00,WeatherLink_script,2013-04-11 10:31:00,
2013-04-11 06:36:00,64.4,54.0,29.88,NE,49,1.8,3.0,69,0.00,NA,NA,0.00,WeatherLink_script,2013-04-11 10:36:00,
2013-04-11 06:41:00,64.4,54.4,29.88,NE,49,1.0,2.0,70,0.00,NA,NA,0.00,WeatherLink_script,2013-04-11 10:41:00,
2013-04-11 06:46:00,64.4,54.4,29.88,NE,49,1.4,3.0,70,0.00,NA,NA,0.00,WeatherLink_script,2013-04-11 10:46:00,
2013-04-11 06:51:00,64.4,54.4,29.88,NE,49,1.4,3.0,70,0.00,NA,NA,0.00,WeatherLink_script,2013-04-11 10:51:00,
2013-04-11 06:56:00,64.4,54.4,29.88,NE,49,0.9,3.0,70,0.00,NA,NA,0.00,WeatherLink_script,2013-04-11 10:56:00,
2013-04-11 07:01:00,64.4,54.4,29.88,NE,49,1.2,3.0,70,0.00,NA,NA,0.00,WeatherLink_script,2013-04-11 11:01:00,
2013-04-11 07:06:00,64.3,54.3,29.88,NE,49,0.3,1.0,70,0.00,NA,NA,0.00,WeatherLink_script,2013-04-11 11:06:00,
2013-04-11 07:11:00,64.1,54.1,29.89,NE,49,0.0,0.0,70,0.00,NA,NA,0.00,WeatherLink_script,2013-04-11 11:11:00,
2013-04-11 07:16:00,64.0,54.4,29.89,NE,49,0.4,1.0,71,0.00,NA,NA,0.00,WeatherLink_script,2013-04-11 11:16:00,
2013-04-11 07:21:00,63.9,54.3,29.89,NE,49,0.0,0.0,71,0.00,NA,NA,0.00,WeatherLink_script,2013-04-11 11:21:00,
2013-04-11 07:26:00,63.8,54.2,29.89,NE,49,0.4,1.0,71,0.00,NA,NA,0.00,WeatherLink_script,2013-04-11 11:26:00,
2013-04-11 07:31:00,64.0,54.4,29.89,NE,49,0.0,0.0,71,0.00,NA,NA,0.00,WeatherLink_script,2013-04-11 11:31:00,
2013-04-11 07:36:00,64.0,54.4,29.89,North,0,0.3,1.0,71,0.00,NA,NA,0.00,WeatherLink_script,2013-04-11 11:36:00,
2013-04-11 07:41:00,64.0,54.4,29.89,North,0,1.8,3.0,71,0.00,NA,NA,0.00,WeatherLink_script,2013-04-11 11:41:00,
2013-04-11 07:46:00,64.0,54.4,29.90,North,0,1.5,3.0,71,0.00,NA,NA,0.00,WeatherLink_script,2013-04-11 11:46:00,
2013-04-11 07:52:00,64.0,54.4,29.90,North,0,0.7,2.0,71,0.00,NA,NA,0.00,WeatherLink_script,2013-04-11 11:52:00,
2013-04-11 07:57:00,64.1,54.5,29.90,North,0,1.2,2.0,71,0.00,NA,NA,0.00,WeatherLink_script,2013-04-11 11:57:00,
2013-04-11 08:03:00,64.1,54.5,29.90,North,0,1.3,2.0,71,0.00,NA,NA,0.00,WeatherLink_script,2013-04-11 12:03:00,
2013-04-11 08:08:00,64.4,54.8,29.90,North,0,1.3,3.0,71,0.00,NA,NA,0.00,WeatherLink_script,2013-04-11 12:08:00,
2013-04-11 08:13:00,64.6,55.0,29.90,North,0,1.1,2.0,71,0.00,NA,NA,0.00,WeatherLink_script,2013-04-11 12:13:00,
2013-04-11 08:18:00,65.0,55.4,29.90,North,0,0.8,2.0,71,0.00,NA,NA,0.00,WeatherLink_script,2013-04-11 12:18:00,
2013-04-11 08:23:00,65.2,55.2,29.90,North,0,1.4,3.0,70,0.00,NA,NA,0.00,WeatherLink_script,2013-04-11 12:23:00,
2013-04-11 08:28:00,65.5,55.0,29.90,North,0,0.5,1.0,69,0.00,NA,NA,0.00,WeatherLink_script,2013-04-11 12:28:00,
2013-04-11 08:33:00,65.6,55.1,29.90,North,0,1.9,3.0,69,0.00,NA,NA,0.00,WeatherLink_script,2013-04-11 12:33:00,
2013-04-11 08:38:00,65.9,55.4,29.90,North,0,1.4,2.0,69,0.00,NA,NA,0.00,WeatherLink_script,2013-04-11 12:38:00,
2013-04-11 08:43:00,66.0,55.1,29.90,North,0,1.0,2.0,68,0.00,NA,NA,0.00,WeatherLink_script,2013-04-11 12:43:00,
2013-04-11 08:48:00,66.4,55.5,29.90,North,0,1.5,2.0,68,0.00,NA,NA,0.00,WeatherLink_script,2013-04-11 12:48:00,
2013-04-11 08:53:00,66.8,55.9,29.90,North,0,1.9,3.0,68,0.00,NA,NA,0.00,WeatherLink_script,2013-04-11 12:53:00,
2013-04-11 08:58:00,67.0,56.9,29.90,North,0,1.0,2.0,70,0.00,NA,NA,0.00,WeatherLink_script,2013-04-11 12:58:00,
2013-04-11 09:03:00,67.5,56.6,29.90,North,351,1.6,2.0,68,0.00,NA,NA,0.00,WeatherLink_script,2013-04-11 13:03:00,
2013-04-11 09:08:00,67.8,56.8,29.90,NNW,347,1.7,3.0,68,0.00,NA,NA,0.00,WeatherLink_script,2013-04-11 13:08:00,
2013-04-11 09:13:00,68.3,57.3,29.90,WSW,255,2.6,4.0,68,0.00,NA,NA,0.00,WeatherLink_script,2013-04-11 13:13:00,
2013-04-11 09:18:00,68.5,56.7,29.90,WSW,255,1.2,2.0,66,0.00,NA,NA,0.00,WeatherLink_script,2013-04-11 13:18:00,
2013-04-11 09:23:00,69.2,57.3,29.90,WSW,255,1.5,2.0,66,0.00,NA,NA,0.00,WeatherLink_script,2013-04-11 13:23:00,
2013-04-11 09:28:00,69.7,57.8,29.90,WSW,255,2.1,4.0,66,0.00,NA,NA,0.00,WeatherLink_script,2013-04-11 13:28:00,
2013-04-11 09:33:00,70.4,57.7,29.90,WSW,255,0.0,0.0,64,0.00,NA,NA,0.00,WeatherLink_script,2013-04-11 13:33:00,
2013-04-11 09:38:00,71.2,57.5,29.90,WSW,242,1.8,3.0,62,0.00,NA,NA,0.00,WeatherLink_script,2013-04-11 13:38:00,
2013-04-11 09:43:00,71.4,57.2,29.90,WSW,242,0.0,0.0,61,0.00,NA,NA,0.00,WeatherLink_script,2013-04-11 13:43:00,
2013-04-11 09:48:00,71.7,57.5,29.90,SW,235,0.9,2.0,61,0.00,NA,NA,0.00,WeatherLink_script,2013-04-11 13:48:00,
2013-04-11 09:53:00,71.9,58.1,29.90,South,169,1.5,3.0,62,0.00,NA,NA,0.00,WeatherLink_script,2013-04-11 13:53:00,
2013-04-11 09:59:00,72.2,58.0,29.90,South,169,1.1,3.0,61,0.00,NA,NA,0.00,WeatherLink_script,2013-04-11 13:59:00,
2013-04-11 10:04:00,72.9,58.6,29.90,South,169,2.2,3.0,61,0.00,NA,NA,0.00,WeatherLink_script,2013-04-11 14:04:00,
2013-04-11 10:09:00,73.8,59.0,29.90,South,176,2.2,3.0,60,0.00,NA,NA,0.00,WeatherLink_script,2013-04-11 14:09:00,
2013-04-11 10:14:00,74.0,58.8,29.90,South,176,2.3,3.0,59,0.00,NA,NA,0.00,WeatherLink_script,2013-04-11 14:14:00,
2013-04-11 10:19:00,74.5,59.2,29.90,SSE,153,2.9,5.0,59,0.00,NA,NA,0.00,WeatherLink_script,2013-04-11 14:19:00,
2013-04-11 10:24:00,75.0,59.2,29.90,SSE,153,1.5,2.0,58,0.00,NA,NA,0.00,WeatherLink_script,2013-04-11 14:24:00,
2013-04-11 10:29:00,75.5,59.2,29.89,SSE,162,2.8,5.0,57,0.00,NA,NA,0.00,WeatherLink_script,2013-04-11 14:29:00,
2013-04-11 10:34:00,76.0,59.1,29.90,SW,217,2.6,5.0,56,0.00,NA,NA,0.00,WeatherLink_script,2013-04-11 14:34:00,
2013-04-11 10:39:00,76.4,59.0,29.90,SW,215,1.6,4.0,55,0.00,NA,NA,0.00,WeatherLink_script,2013-04-11 14:39:00,
2013-04-11 10:44:00,76.7,59.3,29.90,SSE,151,2.3,4.0,55,0.00,NA,NA,0.00,WeatherLink_script,2013-04-11 14:44:00,
2013-04-11 10:49:00,76.8,59.9,29.90,SSE,150,2.1,4.0,56,0.00,NA,NA,0.00,WeatherLink_script,2013-04-11 14:49:00,
2013-04-11 10:54:00,77.1,59.7,29.90,SSE,151,2.5,5.0,55,0.00,NA,NA,0.00,WeatherLink_script,2013-04-11 14:54:00,
2013-04-11 10:59:00,77.5,60.1,29.90,SSE,151,1.1,3.0,55,0.00,NA,NA,0.00,WeatherLink_script,2013-04-11 14:59:00,
2013-04-11 11:04:00,77.9,60.4,29.90,South,178,3.1,5.0,55,0.00,NA,NA,0.00,WeatherLink_script,2013-04-11 15:04:00,
2013-04-11 11:09:00,78.4,60.4,29.89,SSE,148,4.1,8.0,54,0.00,NA,NA,0.00,WeatherLink_script,2013-04-11 15:09:00,
2013-04-11 11:14:00,78.7,60.1,29.89,SSE,161,3.6,5.0,53,0.00,NA,NA,0.00,WeatherLink_script,2013-04-11 15:14:00,
2013-04-11 11:19:00,79.2,60.0,29.89,South,177,3.0,5.0,52,0.00,NA,NA,0.00,WeatherLink_script,2013-04-11 15:19:00,
2013-04-11 11:24:00,79.4,59.7,29.89,South,182,2.4,5.0,51,0.00,NA,NA,0.00,WeatherLink_script,2013-04-11 15:24:00,
2013-04-11 11:29:00,80.2,60.4,29.88,South,169,4.8,6.0,51,0.00,NA,NA,0.00,WeatherLink_script,2013-04-11 15:29:00,
2013-04-11 11:34:00,80.4,60.6,29.88,South,182,4.4,6.0,51,0.00,NA,NA,0.00,WeatherLink_script,2013-04-11 15:34:00,
2013-04-11 11:39:00,80.5,60.1,29.88,SSE,155,3.1,4.0,50,0.00,NA,NA,0.00,WeatherLink_script,2013-04-11 15:39:00,
2013-04-11 11:44:00,80.6,59.6,29.88,SSE,160,4.8,5.0,49,0.00,NA,NA,0.00,WeatherLink_script,2013-04-11 15:44:00,
2013-04-11 11:49:00,80.7,60.9,29.88,South,183,2.8,5.0,51,0.00,NA,NA,0.00,WeatherLink_script,2013-04-11 15:49:00,
2013-04-11 11:54:00,81.1,60.7,29.88,South,173,2.9,5.0,50,0.00,NA,NA,0.00,WeatherLink_script,2013-04-11 15:54:00,
2013-04-11 11:59:00,81.7,60.1,29.88,SSW,203,3.2,5.0,48,0.00,NA,NA,0.00,WeatherLink_script,2013-04-11 15:59:00,
2013-04-11 12:04:00,81.7,60.1,29.88,SSW,202,4.2,6.0,48,0.00,NA,NA,0.00,WeatherLink_script,2013-04-11 16:04:00,
2013-04-11 12:09:00,81.8,60.7,29.87,SSE,167,4.4,6.0,49,0.00,NA,NA,0.00,WeatherLink_script,2013-04-11 16:09:00,
2013-04-11 12:14:00,82.1,59.8,29.87,SSE,156,5.8,7.0,47,0.00,NA,NA,0.00,WeatherLink_script,2013-04-11 16:14:00,
2013-04-11 12:19:00,82.1,59.9,29.87,South,173,4.9,7.0,47,0.00,NA,NA,0.00,WeatherLink_script,2013-04-11 16:19:00,
2013-04-11 12:24:00,82.4,60.7,29.87,SSW,205,2.7,5.0,48,0.00,NA,NA,0.00,WeatherLink_script,2013-04-11 16:24:00,
2013-04-11 12:29:00,82.6,60.3,29.87,SE,139,4.2,6.0,47,0.00,NA,NA,0.00,WeatherLink_script,2013-04-11 16:29:00,
2013-04-11 12:34:00,83.0,61.3,29.86,SSE,167,3.9,6.0,48,0.00,NA,NA,0.00,WeatherLink_script,2013-04-11 16:34:00,
2013-04-11 12:39:00,83.0,60.1,29.86,South,170,5.0,8.0,46,0.00,NA,NA,0.00,WeatherLink_script,2013-04-11 16:39:00,
2013-04-11 12:44:00,83.3,60.3,29.86,SSE,165,5.8,7.0,46,0.00,NA,NA,0.00,WeatherLink_script,2013-04-11 16:44:00,
2013-04-11 12:49:00,83.8,60.1,29.86,SSE,163,5.2,7.0,45,0.00,NA,NA,0.00,WeatherLink_script,2013-04-11 16:49:00,
2013-04-11 12:54:00,84.2,60.5,29.85,SE,144,4.8,6.0,45,0.00,NA,NA,0.00,WeatherLink_script,2013-04-11 16:54:00,
2013-04-11 12:59:00,84.6,60.9,29.85,South,174,4.4,7.0,45,0.00,NA,NA,0.00,WeatherLink_script,2013-04-11 16:59:00,
2013-04-11 13:04:00,85.0,60.0,29.85,SSW,209,4.9,6.0,43,0.00,NA,NA,0.00,WeatherLink_script,2013-04-11 17:04:00,
2013-04-11 13:10:00,85.5,59.7,29.84,SSE,155,5.6,9.0,42,0.00,NA,NA,0.00,WeatherLink_script,2013-04-11 17:10:00,
2013-04-11 13:15:00,85.7,59.3,29.84,South,178,6.5,8.0,41,0.00,NA,NA,0.00,WeatherLink_script,2013-04-11 17:15:00,
2013-04-11 13:20:00,85.4,59.0,29.84,South,191,5.4,7.0,41,0.00,NA,NA,0.00,WeatherLink_script,2013-04-11 17:20:00,
2013-04-11 13:25:00,85.2,58.8,29.83,South,179,4.2,7.0,41,0.00,NA,NA,0.00,WeatherLink_script,2013-04-11 17:25:00,
2013-04-11 13:30:00,85.4,57.6,29.83,SSE,159,6.7,10.0,39,0.00,NA,NA,0.00,WeatherLink_script,2013-04-11 17:30:00,
2013-04-11 13:35:00,85.5,59.1,29.83,South,170,5.4,7.0,41,0.00,NA,NA,0.00,WeatherLink_script,2013-04-11 17:35:00,
2013-04-11 13:40:00,85.6,57.8,29.83,SSE,153,3.7,5.0,39,0.00,NA,NA,0.00,WeatherLink_script,2013-04-11 17:40:00,
2013-04-11 13:45:00,85.6,58.4,29.82,South,176,5.8,8.0,40,0.00,NA,NA,0.00,WeatherLink_script,2013-04-11 17:45:00,
2013-04-11 13:50:00,86.0,58.8,29.82,SSE,165,4.7,7.0,40,0.00,NA,NA,0.00,WeatherLink_script,2013-04-11 17:50:00,
2013-04-11 13:55:00,86.2,57.6,29.82,South,186,5.2,7.0,38,0.00,NA,NA,0.00,WeatherLink_script,2013-04-11 17:55:00,
2013-04-11 14:00:00,86.6,57.9,29.82,SSE,160,4.7,6.0,38,0.00,NA,NA,0.00,WeatherLink_script,2013-04-11 18:00:00,
2013-04-11 14:06:00,86.2,57.6,29.82,SSE,161,7.2,11.0,38,0.00,NA,NA,0.00,WeatherLink_script,2013-04-11 18:06:00,
2013-04-11 14:11:00,85.4,58.3,29.82,SSW,205,4.8,7.0,40,0.00,NA,NA,0.00,WeatherLink_script,2013-04-11 18:11:00,
2013-04-11 14:16:00,85.2,58.1,29.82,South,184,4.7,7.0,40,0.00,NA,NA,0.00,WeatherLink_script,2013-04-11 18:16:00,
2013-04-11 14:21:00,85.2,58.1,29.81,South,181,6.2,8.0,40,0.00,NA,NA,0.00,WeatherLink_script,2013-04-11 18:21:00,
2013-04-11 14:26:00,84.8,57.1,29.81,SSE,159,7.3,11.0,39,0.00,NA,NA,0.00,WeatherLink_script,2013-04-11 18:26:00,
2013-04-11 14:31:00,84.6,57.6,29.81,South,174,6.3,9.0,40,0.00,NA,NA,0.00,WeatherLink_script,2013-04-11 18:31:00,
2013-04-11 14:36:00,84.6,56.9,29.81,South,175,4.6,8.0,39,0.00,NA,NA,0.00,WeatherLink_script,2013-04-11 18:36:00,
2013-04-11 14:41:00,85.0,57.2,29.81,South,171,7.3,9.0,39,0.00,NA,NA,0.00,WeatherLink_script,2013-04-11 18:41:00,
2013-04-11 14:46:00,84.4,56.0,29.81,South,186,6.2,8.0,38,0.00,NA,NA,0.00,WeatherLink_script,2013-04-11 18:46:00,
2013-04-11 14:51:00,84.2,56.5,29.81,South,173,7.3,9.0,39,0.00,NA,NA,0.00,WeatherLink_script,2013-04-11 18:51:00,
2013-04-11 14:57:00,83.8,56.9,29.81,South,173,7.1,9.0,40,0.00,NA,NA,0.00,WeatherLink_script,2013-04-11 18:57:00,
2013-04-11 15:03:00,83.6,57.4,29.80,South,172,4.7,7.0,41,0.00,NA,NA,0.00,WeatherLink_script,2013-04-11 19:03:00,
2013-04-11 15:08:00,83.6,57.4,29.80,South,174,4.4,7.0,41,0.00,NA,NA,0.00,WeatherLink_script,2013-04-11 19:08:00,
2013-04-11 15:14:00,83.6,57.4,29.80,South,171,6.1,7.0,41,0.00,NA,NA,0.00,WeatherLink_script,2013-04-11 19:14:00,
2013-04-11 15:19:00,84.0,57.1,29.79,SSE,164,6.2,10.0,40,0.00,NA,NA,0.00,WeatherLink_script,2013-04-11 19:19:00,
2013-04-11 15:24:00,84.4,57.4,29.79,SSE,167,6.8,9.0,40,0.00,NA,NA,0.00,WeatherLink_script,2013-04-11 19:24:00,
2013-04-11 15:30:00,84.0,57.1,29.79,South,173,8.4,12.0,40,0.00,NA,NA,0.00,WeatherLink_script,2013-04-11 19:30:00,
2013-04-11 15:35:00,83.6,56.7,29.78,SSW,195,6.3,9.0,40,0.00,NA,NA,0.00,WeatherLink_script,2013-04-11 19:35:00,
2013-04-11 15:40:00,83.4,57.2,29.78,SSW,200,5.5,9.0,41,0.00,NA,NA,0.00,WeatherLink_script,2013-04-11 19:40:00,
2013-04-11 15:45:00,83.4,56.5,29.78,SSW,200,5.2,7.0,40,0.00,NA,NA,0.00,WeatherLink_script,2013-04-11 19:45:00,
2013-04-11 15:50:00,83.4,57.2,29.78,South,170,5.8,8.0,41,0.00,NA,NA,0.00,WeatherLink_script,2013-04-11 19:50:00,
2013-04-11 15:55:00,83.6,56.7,29.77,SW,217,4.7,7.0,40,0.00,NA,NA,0.00,WeatherLink_script,2013-04-11 19:55:00,
2013-04-11 16:00:00,83.8,56.2,29.77,SSW,200,6.7,7.0,39,0.00,NA,NA,0.00,WeatherLink_script,2013-04-11 20:00:00,
2013-04-11 16:06:00,84.0,57.1,29.77,SSW,197,4.4,7.0,40,0.00,NA,NA,0.00,WeatherLink_script,2013-04-11 20:06:00,
2013-04-11 16:12:00,84.0,57.1,29.77,SSE,163,7.9,11.0,40,0.00,NA,NA,0.00,WeatherLink_script,2013-04-11 20:12:00,
2013-04-11 16:17:00,83.8,56.9,29.77,SSE,168,7.4,11.0,40,0.00,NA,NA,0.00,WeatherLink_script,2013-04-11 20:17:00,
2013-04-11 16:23:00,83.6,56.0,29.77,South,180,7.0,10.0,39,0.00,NA,NA,0.00,WeatherLink_script,2013-04-11 20:23:00,
2013-04-11 16:29:00,83.8,55.4,29.77,South,186,7.2,9.0,38,0.00,NA,NA,0.00,WeatherLink_script,2013-04-11 20:29:00,
2013-04-11 16:34:00,83.8,56.2,29.77,South,191,5.8,8.0,39,0.00,NA,NA,0.00,WeatherLink_script,2013-04-11 20:34:00,
2013-04-11 16:40:00,83.8,56.2,29.77,South,182,8.0,10.0,39,0.00,NA,NA,0.00,WeatherLink_script,2013-04-11 20:40:00,
2013-04-11 16:46:00,83.0,56.2,29.76,South,184,6.7,9.0,40,0.00,NA,NA,0.00,WeatherLink_script,2013-04-11 20:46:00,
2013-04-11 16:51:00,82.4,55.6,29.76,South,180,7.4,10.0,40,0.00,NA,NA,0.00,WeatherLink_script,2013-04-11 20:51:00,
2013-04-11 16:56:00,81.9,55.9,29.76,SW,221,6.0,8.0,41,0.00,NA,NA,0.00,WeatherLink_script,2013-04-11 20:56:00,
2013-04-11 17:01:00,81.7,56.3,29.76,South,179,6.2,8.0,42,0.00,NA,NA,0.00,WeatherLink_script,2013-04-11 21:01:00,
2013-04-11 17:07:00,81.3,56.0,29.76,SSE,153,5.6,8.0,42,0.00,NA,NA,0.00,WeatherLink_script,2013-04-11 21:07:00,
2013-04-11 17:12:00,81.1,56.5,29.76,South,169,4.7,6.0,43,0.00,NA,NA,0.00,WeatherLink_script,2013-04-11 21:12:00,
2013-04-11 17:17:00,80.9,56.3,29.76,SSE,164,6.1,8.0,43,0.00,NA,NA,0.00,WeatherLink_script,2013-04-11 21:17:00,
2013-04-11 17:22:00,80.7,56.1,29.76,SSW,208,4.4,7.0,43,0.00,NA,NA,0.00,WeatherLink_script,2013-04-11 21:22:00,
2013-04-11 17:28:00,80.5,55.9,29.76,SSW,204,4.7,8.0,43,0.00,NA,NA,0.00,WeatherLink_script,2013-04-11 21:28:00,
2013-04-11 17:33:00,80.4,55.2,29.76,South,180,5.0,8.0,42,0.00,NA,NA,0.00,WeatherLink_script,2013-04-11 21:33:00,
2013-04-11 17:38:00,80.2,56.3,29.76,SSW,201,4.6,6.0,44,0.00,NA,NA,0.00,WeatherLink_script,2013-04-11 21:38:00,
2013-04-11 17:43:00,80.0,56.1,29.76,SSW,195,5.4,7.0,44,0.00,NA,NA,0.00,WeatherLink_script,2013-04-11 21:43:00,
2013-04-11 17:48:00,79.8,55.9,29.76,SSW,196,5.7,7.0,44,0.00,NA,NA,0.00,WeatherLink_script,2013-04-11 21:48:00,
2013-04-11 17:54:00,79.6,55.7,29.76,SSW,208,7.1,10.0,44,0.00,NA,NA,0.00,WeatherLink_script,2013-04-11 21:54:00,
2013-04-11 17:59:00,79.7,56.5,29.76,SSW,193,5.8,7.0,45,0.00,NA,NA,0.00,WeatherLink_script,2013-04-11 21:59:00,
2013-04-11 18:05:00,79.8,55.9,29.76,SSW,194,2.4,5.0,44,0.00,NA,NA,0.00,WeatherLink_script,2013-04-11 22:05:00,
2013-04-11 18:10:00,79.8,55.9,29.77,SSW,194,3.1,4.0,44,0.00,NA,NA,0.00,WeatherLink_script,2013-04-11 22:10:00,
2013-04-11 18:15:00,79.8,56.5,29.76,SSW,195,5.0,7.0,45,0.00,NA,NA,0.00,WeatherLink_script,2013-04-11 22:15:00,
2013-04-11 18:21:00,79.8,57.1,29.76,South,190,3.7,5.0,46,0.00,NA,NA,0.00,WeatherLink_script,2013-04-11 22:21:00,
2013-04-11 18:26:00,79.6,57.0,29.76,South,182,3.9,5.0,46,0.00,NA,NA,0.00,WeatherLink_script,2013-04-11 22:26:00,
2013-04-11 18:31:00,79.4,57.4,29.75,South,182,4.6,6.0,47,0.00,NA,NA,0.00,WeatherLink_script,2013-04-11 22:31:00,
2013-04-11 18:36:00,79.2,57.2,29.75,South,175,5.7,7.0,47,0.00,NA,NA,0.00,WeatherLink_script,2013-04-11 22:36:00,
2013-04-11 18:42:00,78.7,58.5,29.75,SSE,168,6.9,8.0,50,0.00,NA,NA,0.00,WeatherLink_script,2013-04-11 22:42:00,
2013-04-11 18:48:00,78.1,58.5,29.76,South,184,8.6,11.0,51,0.00,NA,NA,0.00,WeatherLink_script,2013-04-11 22:48:00,
2013-04-11 18:53:00,77.6,59.1,29.76,SSE,160,7.8,12.0,53,0.00,NA,NA,0.00,WeatherLink_script,2013-04-11 22:53:00,
2013-04-11 18:58:00,77.3,59.3,29.76,SSE,160,4.8,8.0,54,0.00,NA,NA,0.00,WeatherLink_script,2013-04-11 22:58:00,
2013-04-11 19:04:00,76.9,59.0,29.76,SW,215,5.0,7.0,54,0.00,NA,NA,0.00,WeatherLink_script,2013-04-11 23:04:00,
2013-04-11 19:10:00,76.5,59.1,29.76,SW,226,5.5,7.0,55,0.00,NA,NA,0.00,WeatherLink_script,2013-04-11 23:10:00,
2013-04-11 19:15:00,76.1,59.3,29.76,SW,225,6.1,10.0,56,0.00,NA,NA,0.00,WeatherLink_script,2013-04-11 23:15:00,
2013-04-11 19:21:00,75.7,58.8,29.77,South,175,7.4,10.0,56,0.00,NA,NA,0.00,WeatherLink_script,2013-04-11 23:21:00,
2013-04-11 19:27:00,75.5,59.2,29.76,South,174,7.1,9.0,57,0.00,NA,NA,0.00,WeatherLink_script,2013-04-11 23:27:00,
2013-04-11 19:32:00,75.1,58.8,29.76,South,176,6.0,7.0,57,0.00,NA,NA,0.00,WeatherLink_script,2013-04-11 23:32:00,
2013-04-11 19:37:00,74.8,58.5,29.76,South,172,6.3,8.0,57,0.00,NA,NA,0.00,WeatherLink_script,2013-04-11 23:37:00,
2013-04-11 19:42:00,74.6,58.3,29.76,South,173,7.2,9.0,57,0.00,NA,NA,0.00,WeatherLink_script,2013-04-11 23:42:00,
2013-04-11 19:48:00,74.3,58.1,29.76,South,191,7.0,9.0,57,0.00,NA,NA,0.00,WeatherLink_script,2013-04-11 23:48:00,
2013-04-11 19:53:00,73.9,58.2,29.77,South,173,5.9,8.0,58,0.00,NA,NA,0.00,WeatherLink_script,2013-04-11 23:53:00,
2013-04-11 19:58:00,73.8,58.1,29.76,South,184,4.7,7.0,58,0.00,NA,NA,0.00,WeatherLink_script,2013-04-11 23:58:00,
2013-04-11 20:03:00,73.6,57.9,29.77,South,177,5.3,7.0,58,0.00,NA,NA,0.00,WeatherLink_script,2013-04-12 00:03:00,
2013-04-11 20:08:00,73.4,58.2,29.77,South,176,5.7,7.0,59,0.00,NA,NA,0.00,WeatherLink_script,2013-04-12 00:08:00,
2013-04-11 20:14:00,73.2,58.0,29.77,South,173,4.6,6.0,59,0.00,NA,NA,0.00,WeatherLink_script,2013-04-12 00:14:00,
2013-04-11 20:19:00,73.1,58.4,29.77,South,179,5.3,7.0,60,0.00,NA,NA,0.00,WeatherLink_script,2013-04-12 00:19:00,
2013-04-11 20:24:00,72.9,58.2,29.77,South,178,5.2,6.0,60,0.00,NA,NA,0.00,WeatherLink_script,2013-04-12 00:24:00,
2013-04-11 20:29:00,72.7,58.0,29.77,SSE,158,4.3,5.0,60,0.00,NA,NA,0.00,WeatherLink_script,2013-04-12 00:29:00,
2013-04-11 20:34:00,72.6,57.9,29.77,South,169,4.5,7.0,60,0.00,NA,NA,0.00,WeatherLink_script,2013-04-12 00:34:00,
2013-04-11 20:39:00,72.4,58.2,29.77,South,173,4.6,7.0,61,0.00,NA,NA,0.00,WeatherLink_script,2013-04-12 00:39:00,
2013-04-11 20:44:00,72.2,58.0,29.77,South,175,5.0,7.0,61,0.00,NA,NA,0.00,WeatherLink_script,2013-04-12 00:44:00,
2013-04-11 20:49:00,72.1,58.3,29.78,South,179,5.1,6.0,62,0.00,NA,NA,0.00,WeatherLink_script,2013-04-12 00:49:00,
2013-04-11 20:54:00,71.9,58.2,29.77,South,169,4.5,6.0,62,0.00,NA,NA,0.00,WeatherLink_script,2013-04-12 00:54:00,
2013-04-11 20:59:00,71.9,58.2,29.77,South,169,5.3,7.0,62,0.00,NA,NA,0.00,WeatherLink_script,2013-04-12 00:59:00,
2013-04-11 21:04:00,71.5,57.8,29.77,South,171,3.7,4.0,62,0.00,NA,NA,0.00,WeatherLink_script,2013-04-12 01:04:00,
2013-04-11 21:09:00,71.5,58.2,29.77,South,169,4.2,5.0,63,0.00,NA,NA,0.00,WeatherLink_script,2013-04-12 01:09:00,
2013-04-11 21:14:00,71.3,58.0,29.77,South,169,4.9,7.0,63,0.00,NA,NA,0.00,WeatherLink_script,2013-04-12 01:14:00,
2013-04-11 21:19:00,71.4,58.1,29.77,South,174,4.4,6.0,63,0.00,NA,NA,0.00,WeatherLink_script,2013-04-12 01:19:00,
2013-04-11 21:24:00,71.2,58.0,29.77,South,172,5.5,7.0,63,0.00,NA,NA,0.00,WeatherLink_script,2013-04-12 01:24:00,
2013-04-11 21:30:00,71.2,58.0,29.77,SSE,164,4.8,6.0,63,0.00,NA,NA,0.00,WeatherLink_script,2013-04-12 01:30:00,
2013-04-11 21:35:00,71.2,58.0,29.77,South,174,5.5,6.0,63,0.00,NA,NA,0.00,WeatherLink_script,2013-04-12 01:35:00,
2013-04-11 21:40:00,71.1,57.9,29.77,SSE,159,3.0,4.0,63,0.00,NA,NA,0.00,WeatherLink_script,2013-04-12 01:40:00,
2013-04-11 21:45:00,71.0,57.7,29.78,SSE,159,3.6,5.0,63,0.00,NA,NA,0.00,WeatherLink_script,2013-04-12 01:45:00,
2013-04-11 21:50:00,70.8,57.6,29.77,SSE,161,2.6,3.0,63,0.00,NA,NA,0.00,WeatherLink_script,2013-04-12 01:50:00,
2013-04-11 21:55:00,70.9,58.1,29.77,SSE,161,3.8,5.0,64,0.00,NA,NA,0.00,WeatherLink_script,2013-04-12 01:55:00,
2013-04-11 22:00:00,70.6,57.9,29.77,South,182,3.5,4.0,64,0.00,NA,NA,0.00,WeatherLink_script,2013-04-12 02:00:00,
2013-04-11 22:05:00,70.5,57.7,29.77,South,181,4.3,6.0,64,0.00,NA,NA,0.00,WeatherLink_script,2013-04-12 02:05:00,
2013-04-11 22:10:00,70.3,57.5,29.77,South,180,4.6,7.0,64,0.00,NA,NA,0.00,WeatherLink_script,2013-04-12 02:10:00,
2013-04-11 22:15:00,70.3,57.5,29.77,SSE,166,5.1,6.0,64,0.00,NA,NA,0.00,WeatherLink_script,2013-04-12 02:15:00,
2013-04-11 22:20:00,70.2,57.4,29.76,SSE,168,4.0,6.0,64,0.00,NA,NA,0.00,WeatherLink_script,2013-04-12 02:20:00,
2013-04-11 22:25:00,70.2,57.4,29.76,South,170,4.3,5.0,64,0.00,NA,NA,0.00,WeatherLink_script,2013-04-12 02:25:00,
2013-04-11 22:30:00,70.0,57.7,29.76,South,172,4.1,5.0,65,0.00,NA,NA,0.00,WeatherLink_script,2013-04-12 02:30:00,
2013-04-11 22:35:00,70.0,57.7,29.77,South,171,2.8,4.0,65,0.00,NA,NA,0.00,WeatherLink_script,2013-04-12 02:35:00,
2013-04-11 22:40:00,69.9,57.6,29.76,SSW,193,3.9,4.0,65,0.00,NA,NA,0.00,WeatherLink_script,2013-04-12 02:40:00,
2013-04-11 22:45:00,69.7,57.4,29.77,SSW,193,3.7,5.0,65,0.00,NA,NA,0.00,WeatherLink_script,2013-04-12 02:45:00,
2013-04-11 22:50:00,69.7,57.4,29.77,SSW,193,2.5,4.0,65,0.00,NA,NA,0.00,WeatherLink_script,2013-04-12 02:50:00,
2013-04-11 22:55:00,69.5,57.2,29.76,SSW,193,3.2,4.0,65,0.00,NA,NA,0.00,WeatherLink_script,2013-04-12 02:55:00,
2013-04-11 23:01:00,69.3,57.4,29.76,South,183,3.2,5.0,66,0.00,NA,NA,0.00,WeatherLink_script,2013-04-12 03:01:00,
2013-04-11 23:06:00,69.3,57.4,29.77,South,183,2.7,4.0,66,0.00,NA,NA,0.00,WeatherLink_script,2013-04-12 03:06:00,
2013-04-11 23:11:00,69.2,57.3,29.77,South,183,2.7,5.0,66,0.00,NA,NA,0.00,WeatherLink_script,2013-04-12 03:11:00,
2013-04-11 23:16:00,69.0,57.1,29.76,South,183,3.4,5.0,66,0.00,NA,NA,0.00,WeatherLink_script,2013-04-12 03:16:00,
2013-04-11 23:21:00,68.8,57.4,29.77,South,183,3.5,5.0,67,0.00,NA,NA,0.00,WeatherLink_script,2013-04-12 03:21:00,
2013-04-11 23:26:00,68.8,57.4,29.76,South,190,4.1,5.0,67,0.00,NA,NA,0.00,WeatherLink_script,2013-04-12 03:26:00,
2013-04-11 23:31:00,68.7,57.3,29.76,South,189,4.3,5.0,67,0.00,NA,NA,0.00,WeatherLink_script,2013-04-12 03:31:00,
2013-04-11 23:36:00,68.7,57.3,29.75,South,181,4.4,7.0,67,0.00,NA,NA,0.00,WeatherLink_script,2013-04-12 03:36:00,
2013-04-11 23:41:00,68.5,57.5,29.75,South,180,3.0,4.0,68,0.00,NA,NA,0.00,WeatherLink_script,2013-04-12 03:41:00,
2013-04-11 23:46:00,68.5,57.5,29.75,South,180,1.7,3.0,68,0.00,NA,NA,0.00,WeatherLink_script,2013-04-12 03:46:00,
2013-04-11 23:51:00,68.5,57.5,29.75,South,180,2.3,3.0,68,0.00,NA,NA,0.00,WeatherLink_script,2013-04-12 03:51:00,
2013-04-11 23:56:00,68.5,57.5,29.76,SSE,165,2.9,4.0,68,0.00,NA,NA,0.00,WeatherLink_script,2013-04-12 03:56:00,